createdAt,value
2023-09-06T00:04:31.340Z,170014.63
2023-09-06T00:14:34.543Z,170005.31
2023-09-06T00:24:38.956Z,169978.63
2023-09-06T00:34:41.955Z,169924.00
2023-09-06T00:44:46.499Z,169850.63
2023-09-06T00:54:50.528Z,169798.66
2023-09-06T01:04:56.049Z,169739.97
2023-09-06T01:14:59.097Z,169698.69
2023-09-06T01:25:04.526Z,169685.34
2023-09-06T01:35:11.369Z,169668.03
2023-09-06T01:45:18.722Z,169650.72
2023-09-06T01:55:22.719Z,169617.38
2023-09-06T02:05:27.243Z,169594.69
2023-09-06T02:15:30.871Z,169562.72
2023-09-06T02:25:36.016Z,169520.09
2023-09-06T02:35:41.652Z,169505.47
2023-09-06T02:45:51.346Z,169470.84
2023-09-06T02:55:55.417Z,169406.91
2023-09-06T03:06:05.307Z,169328.28
2023-09-06T03:16:09.035Z,169269.72
2023-09-06T03:26:14.502Z,169215.13
2023-09-06T03:36:18.116Z,169181.84
2023-09-06T03:46:24.051Z,169136.53
2023-09-06T03:56:27.149Z,169095.28
2023-09-06T04:06:32.357Z,169056.69
2023-09-06T04:16:36.588Z,169032.75
2023-09-06T04:26:42.347Z,168987.50
2023-09-06T04:36:45.819Z,168963.56
2023-09-06T04:46:50.377Z,168979.53
2023-09-06T04:56:54.442Z,168990.19
2023-09-06T05:07:01.370Z,169038.03
2023-09-06T05:17:04.517Z,169076.63
2023-09-06T05:27:08.920Z,169112.59
2023-09-06T05:37:12.856Z,169160.56
2023-09-06T05:47:17.419Z,169187.19
2023-09-06T05:57:20.599Z,169251.06
2023-09-06T06:07:25.579Z,169307.00
2023-09-06T06:17:29.858Z,169384.22
2023-09-06T06:27:40.529Z,169464.16
2023-09-06T06:37:50.583Z,169577.38
2023-09-06T06:47:55.511Z,169693.34
2023-09-06T06:58:04.634Z,169825.25
2023-09-06T07:08:09.885Z,169965.31
2023-09-06T07:18:17.738Z,170086.66
2023-09-06T07:28:38.711Z,170217.38
2023-09-06T07:38:42.449Z,170334.84
2023-09-06T07:48:47.322Z,170446.94
2023-09-06T07:58:53.167Z,170571.09
2023-09-06T08:09:00.771Z,170679.25
2023-09-06T08:19:06.167Z,170810.16
2023-09-06T08:29:16.440Z,170921.06
2023-09-06T08:39:23.375Z,171026.63
2023-09-06T08:49:30.634Z,171140.22
2023-09-06T08:59:42.723Z,171249.81
2023-09-06T09:10:01.759Z,171320.75
2023-09-06T09:20:06.916Z,171400.94
2023-09-06T09:30:13.093Z,171469.16
2023-09-06T09:40:20.266Z,171525.31
2023-09-06T09:50:26.522Z,171615.00
2023-09-06T10:00:31.872Z,171709.97
2023-09-06T10:10:40.803Z,171731.38
2023-09-06T10:20:51.142Z,171790.28
2023-09-06T10:31:09.189Z,171897.31
2023-09-06T10:41:12.549Z,171932.16
2023-09-06T10:51:19.270Z,171985.72
2023-09-06T11:01:22.460Z,172084.75
2023-09-06T11:11:33.589Z,172118.25
2023-09-06T11:21:37.698Z,172209.28
2023-09-06T11:31:50.709Z,172201.28
2023-09-06T11:41:55.626Z,172234.72
2023-09-06T11:52:06.325Z,172249.53
2023-09-06T12:02:14.525Z,172245.47
2023-09-06T12:12:21.755Z,172367.38
2023-09-06T12:22:27.411Z,172299.03
2023-09-06T12:32:36.105Z,172364.69
2023-09-06T12:42:46.125Z,172366.03
2023-09-06T12:52:54.706Z,172439.75
2023-09-06T13:03:01.947Z,172490.63
2023-09-06T13:13:09.837Z,172508.03
2023-09-06T13:23:16.618Z,172533.50
2023-09-06T13:33:23.829Z,172585.78
2023-09-06T13:43:33.706Z,172600.56
2023-09-06T13:53:44.694Z,172624.66
2023-09-06T14:03:48.349Z,172663.50
2023-09-06T14:14:01.953Z,172666.22
2023-09-06T14:24:08.303Z,172692.97
2023-09-06T14:34:16.826Z,172772.09
2023-09-06T14:44:21.464Z,172890.09
2023-09-06T14:54:33.123Z,172938.34
2023-09-06T15:04:38.528Z,173004.09
2023-09-06T15:14:49.229Z,173100.59
2023-09-06T15:24:54.423Z,173033.59
2023-09-06T15:35:09.381Z,172962.47
2023-09-06T15:45:13.222Z,172777.47
2023-09-06T15:55:18.829Z,172630.03
2023-09-06T16:05:29.088Z,172554.97
2023-09-06T16:15:40.054Z,172500.00
2023-09-06T16:25:43.821Z,172474.56
2023-09-06T16:35:51.721Z,172530.84
2023-09-06T16:46:01.981Z,172550.91
2023-09-06T16:56:09.497Z,172536.19
2023-09-06T17:06:18.624Z,172453.16
2023-09-06T17:16:26.650Z,172300.41
2023-09-06T17:26:36.848Z,172174.47
2023-09-06T17:36:43.969Z,172062.00
2023-09-06T17:46:51.033Z,171954.94
2023-09-06T17:57:00.716Z,171867.88
2023-09-06T18:07:07.432Z,171734.03
2023-09-06T18:17:15.446Z,171581.50
2023-09-06T18:27:18.790Z,171425.03
2023-09-06T18:37:23.280Z,171279.28
2023-09-06T18:47:26.375Z,171153.59
2023-09-06T18:57:30.843Z,171030.63
2023-09-06T19:07:35.101Z,170943.78
2023-09-06T19:17:40.184Z,170886.28
2023-09-06T19:27:44.226Z,170803.47
2023-09-06T19:37:48.671Z,170744.72
2023-09-06T19:47:51.812Z,170675.25
2023-09-06T19:57:56.291Z,170605.81
2023-09-06T20:08:00.037Z,170544.44
2023-09-06T20:18:05.506Z,170498.97
2023-09-06T20:28:08.635Z,170468.28
2023-09-06T20:38:13.063Z,170440.28
2023-09-06T20:48:16.575Z,170401.59
2023-09-06T20:58:21.792Z,170362.88
2023-09-06T21:08:25.026Z,170321.50
2023-09-06T21:18:30.516Z,170274.75
2023-09-06T21:28:34.145Z,170238.72
2023-09-06T21:38:38.855Z,170170.69
2023-09-06T21:48:41.981Z,170148.00
2023-09-06T21:58:47.836Z,170108.03
2023-09-06T22:08:53.749Z,170085.31
2023-09-06T22:19:17.314Z,170053.28
2023-09-06T22:29:20.372Z,170021.31
2023-09-06T22:39:25.010Z,169985.28
2023-09-06T22:49:28.111Z,169930.63
2023-09-06T22:59:32.567Z,169880.00
2023-09-06T23:09:35.647Z,169842.59
2023-09-06T23:19:45.104Z,169829.25
2023-09-06T23:29:52.095Z,169795.94
2023-09-06T23:39:59.891Z,169749.31
2023-09-06T23:50:03.312Z,169714.66
